Black Rock, Arkansas
Current Conditions -  °F | °C
As of 3:15 PM on Sunday 23 Nov 2014 (Local Time) from KARG Reporting Station
Overcast Overcast  
Wind Chill: 57°   Ceiling: 400
Heat Index: 57°   Visibility: 6mi
Dew Point: 55°   Wind: 3mph
Humidity: 94%   Direction: 210°SSW
Pressure: 29.33"   Gusts: NA
Location:  36.11°N, 91.1°W
Report Text: KARG 232115Z AUTO 21003KT 6SM OVC004 14/13 A2933 RMK AO1 P0001
Loading
Personal Weather Stations






























Interactive Weather Map New forecast layout! Learn more

10-Day Weather Forecast

Advertisements
Track Severe Weather on mobile